createdAt,value
2019-01-14T00:03:04.132Z,5.8
2019-01-14T00:08:04.148Z,5.8
2019-01-14T00:13:04.104Z,5.8
2019-01-14T00:18:04.124Z,5.8
2019-01-14T00:23:04.138Z,5.8
2019-01-14T00:28:04.132Z,5.8
2019-01-14T00:33:04.148Z,5.8
2019-01-14T00:38:04.128Z,5.7
2019-01-14T00:43:04.141Z,5.7
2019-01-14T00:48:04.151Z,5.7
2019-01-14T00:53:04.134Z,5.7
2019-01-14T00:58:04.152Z,5.7
2019-01-14T01:03:04.155Z,5.8
2019-01-14T01:08:04.316Z,5.8
2019-01-14T01:13:04.165Z,5.8
2019-01-14T01:18:04.278Z,5.9
2019-01-14T01:23:04.162Z,6
2019-01-14T01:28:04.160Z,6
2019-01-14T01:33:04.162Z,6
2019-01-14T01:38:04.313Z,5.9
2019-01-14T01:43:04.165Z,5.9
2019-01-14T01:48:04.176Z,5.8
2019-01-14T01:53:04.183Z,5.7
2019-01-14T01:58:04.166Z,5.7
2019-01-14T02:03:04.188Z,5.6
2019-01-14T02:08:04.293Z,5.6
2019-01-14T02:13:04.184Z,5.6
2019-01-14T02:18:04.379Z,5.6
2019-01-14T02:23:04.178Z,5.5
2019-01-14T02:28:04.192Z,5.5
2019-01-14T02:33:04.205Z,5.5
2019-01-14T02:38:04.198Z,5.4
2019-01-14T02:43:04.198Z,5.4
2019-01-14T02:48:04.221Z,5.4
2019-01-14T02:53:04.233Z,5.4
2019-01-14T02:58:04.213Z,5.4
2019-01-14T03:03:04.231Z,5.4
2019-01-14T03:08:04.215Z,5.3
2019-01-14T03:13:04.394Z,5.3
2019-01-14T03:18:04.439Z,5.3
2019-01-14T03:23:04.348Z,5.3
2019-01-14T03:28:04.237Z,5.3
2019-01-14T03:33:04.440Z,5.4
2019-01-14T03:38:04.472Z,5.4
2019-01-14T03:43:04.251Z,5.4
2019-01-14T03:48:04.261Z,5.4
2019-01-14T03:53:04.274Z,5.4
2019-01-14T03:58:04.254Z,5.4
2019-01-14T04:03:04.270Z,5.4
2019-01-14T04:08:04.275Z,5.4
2019-01-14T04:13:04.279Z,5.5
2019-01-14T04:18:04.389Z,5.5
2019-01-14T04:23:04.471Z,5.5
2019-01-14T04:28:04.295Z,5.5
2019-01-14T04:33:04.269Z,5.4
2019-01-14T04:38:04.284Z,5.4
2019-01-14T04:43:04.276Z,5.4
2019-01-14T04:48:04.416Z,5.4
2019-01-14T04:53:04.311Z,5.4
2019-01-14T04:58:04.513Z,5.4
2019-01-14T05:03:04.406Z,5.3
2019-01-14T05:08:04.299Z,5.3
2019-01-14T05:13:04.294Z,5.3
2019-01-14T05:18:04.434Z,5.3
2019-01-14T05:23:04.321Z,5.2
2019-01-14T05:28:04.314Z,5.2
2019-01-14T05:33:04.551Z,5.2
2019-01-14T05:38:04.280Z,5.2
2019-01-14T05:43:04.335Z,5.1
2019-01-14T05:48:04.355Z,5.1
2019-01-14T05:53:04.326Z,5.1
2019-01-14T05:58:04.328Z,5.1
2019-01-14T06:03:04.351Z,5
2019-01-14T06:08:04.470Z,5.1
2019-01-14T06:13:04.334Z,5
2019-01-14T06:18:04.327Z,5
2019-01-14T06:23:04.353Z,5
2019-01-14T06:28:04.300Z,4.9
2019-01-14T06:33:04.356Z,4.9
2019-01-14T06:38:04.508Z,4.9
2019-01-14T06:43:04.784Z,4.9
2019-01-14T06:48:04.355Z,4.9
2019-01-14T06:53:04.365Z,4.9
2019-01-14T06:58:04.365Z,4.9
2019-01-14T07:03:04.362Z,4.9
2019-01-14T07:08:04.583Z,5
2019-01-14T07:13:04.618Z,5
2019-01-14T07:18:04.381Z,5
2019-01-14T07:23:04.340Z,4.9
2019-01-14T07:28:04.482Z,4.8
2019-01-14T07:33:04.365Z,4.8
2019-01-14T07:38:06.801Z,4.8
2019-01-14T07:43:04.624Z,4.8
2019-01-14T07:48:04.541Z,4.8
2019-01-14T07:53:04.425Z,4.8
2019-01-14T07:58:05.082Z,4.8
2019-01-14T08:03:05.069Z,4.8
2019-01-14T08:08:05.322Z,4.8
2019-01-14T08:13:05.373Z,4.9
2019-01-14T08:18:05.064Z,4.9
2019-01-14T08:23:05.100Z,4.9
2019-01-14T08:28:05.078Z,4.9
2019-01-14T08:33:05.258Z,4.9
2019-01-14T08:38:05.193Z,4.9
2019-01-14T08:43:05.396Z,4.9
2019-01-14T08:48:05.124Z,4.9
2019-01-14T08:53:05.110Z,5
2019-01-14T08:58:05.128Z,5
2019-01-14T09:03:05.255Z,5
2019-01-14T09:08:05.122Z,5
2019-01-14T09:13:06.376Z,5.1
2019-01-14T09:18:05.103Z,5.1
2019-01-14T09:23:05.112Z,5.1
2019-01-14T09:28:05.103Z,5.1
2019-01-14T09:33:05.118Z,5.2
2019-01-14T09:38:05.122Z,5.3
2019-01-14T09:43:05.085Z,5.4
2019-01-14T09:48:05.370Z,5.4
2019-01-14T09:53:05.158Z,5.4
2019-01-14T09:58:05.345Z,5.5
2019-01-14T10:03:05.197Z,5.5
2019-01-14T10:08:05.296Z,5.5
2019-01-14T10:13:05.159Z,5.5
2019-01-14T10:18:05.163Z,5.5
2019-01-14T10:23:05.159Z,5.4
2019-01-14T10:28:05.175Z,5.4
2019-01-14T10:33:05.141Z,5.3
2019-01-14T10:38:05.144Z,5.4
2019-01-14T10:43:05.169Z,5.4
2019-01-14T10:48:05.119Z,5.4
2019-01-14T10:53:05.188Z,5.4
2019-01-14T10:58:05.340Z,5.3
2019-01-14T11:03:05.201Z,5.2
2019-01-14T11:08:05.185Z,5.2
2019-01-14T11:13:05.139Z,5.2
2019-01-14T11:18:05.139Z,5.2
2019-01-14T11:23:05.190Z,5.2
2019-01-14T11:28:05.469Z,5.1
2019-01-14T11:33:05.184Z,5.2
2019-01-14T11:38:05.404Z,5.1
2019-01-14T11:43:05.336Z,5.1
2019-01-14T11:48:05.326Z,5.1
2019-01-14T11:53:05.195Z,5.2
2019-01-14T11:58:05.205Z,5.2
2019-01-14T12:03:05.227Z,5.2
2019-01-14T12:08:05.208Z,5.2
2019-01-14T12:13:05.189Z,5.2
2019-01-14T12:18:05.370Z,5.1
2019-01-14T12:23:05.242Z,5.1
2019-01-14T12:28:05.227Z,5.1
2019-01-14T12:33:05.371Z,5.1
2019-01-14T12:38:05.231Z,5
2019-01-14T12:43:05.229Z,4.9
2019-01-14T12:48:05.234Z,4.9
2019-01-14T12:53:05.229Z,4.9
2019-01-14T12:58:05.456Z,4.9
2019-01-14T13:03:05.506Z,4.9
2019-01-14T13:08:05.255Z,4.9
2019-01-14T13:13:05.255Z,4.9
2019-01-14T13:18:06.396Z,4.9
2019-01-14T13:23:05.258Z,4.8
2019-01-14T13:28:05.280Z,4.8
2019-01-14T13:33:05.267Z,4.7
2019-01-14T13:38:05.249Z,4.6
2019-01-14T13:43:05.250Z,4.6
2019-01-14T13:48:05.264Z,4.5
2019-01-14T13:53:05.257Z,4.5
2019-01-14T13:58:05.259Z,4.4
2019-01-14T14:03:05.277Z,4.4
2019-01-14T14:08:05.285Z,4.3
2019-01-14T14:13:05.441Z,4.4
2019-01-14T14:18:05.270Z,4.2
2019-01-14T14:23:05.274Z,4.1
2019-01-14T14:28:05.282Z,3.9
2019-01-14T14:33:05.294Z,4
2019-01-14T14:38:05.321Z,4
2019-01-14T14:43:05.300Z,3.9
2019-01-14T14:48:05.288Z,3.9
2019-01-14T14:53:05.294Z,3.8
2019-01-14T14:58:05.296Z,3.7
2019-01-14T15:03:05.273Z,3.6
2019-01-14T15:08:05.307Z,3.5
2019-01-14T15:13:05.329Z,3.4
2019-01-14T15:18:05.320Z,3.3
2019-01-14T15:23:05.313Z,3.3
2019-01-14T15:28:05.320Z,3.2
2019-01-14T15:33:05.344Z,3.1
2019-01-14T15:38:05.407Z,3
2019-01-14T15:43:05.321Z,3
2019-01-14T15:48:05.343Z,2.9
2019-01-14T15:53:05.278Z,2.9
2019-01-14T15:58:05.327Z,2.8
2019-01-14T16:03:05.476Z,2.8
2019-01-14T16:08:05.384Z,2.9
2019-01-14T16:13:05.496Z,2.9
2019-01-14T16:18:05.334Z,2.9
2019-01-14T16:23:05.513Z,3
2019-01-14T16:28:05.571Z,3
2019-01-14T16:33:05.435Z,3
2019-01-14T16:38:05.410Z,3
2019-01-14T16:43:05.558Z,3
2019-01-14T16:48:05.473Z,3
2019-01-14T16:53:05.396Z,2.9
2019-01-14T16:58:05.356Z,2.9
2019-01-14T17:03:05.368Z,2.9
2019-01-14T17:08:05.366Z,2.9
2019-01-14T17:13:05.412Z,2.9
2019-01-14T17:18:05.383Z,2.9
2019-01-14T17:23:05.388Z,3
2019-01-14T17:28:05.369Z,3
2019-01-14T17:33:05.372Z,3
2019-01-14T17:38:05.722Z,3
2019-01-14T17:43:05.382Z,3
2019-01-14T17:48:05.396Z,3
2019-01-14T17:53:05.389Z,3
2019-01-14T17:58:05.402Z,2.9
2019-01-14T18:03:05.400Z,2.7
2019-01-14T18:08:05.384Z,2.4
2019-01-14T18:13:05.404Z,2.4
2019-01-14T18:18:05.424Z,2.4
2019-01-14T18:23:05.356Z,2.4
2019-01-14T18:28:05.637Z,2.3
2019-01-14T18:33:05.410Z,2.3
2019-01-14T18:38:05.428Z,2.3
2019-01-14T18:43:05.473Z,2.3
2019-01-14T18:48:05.422Z,2.3
2019-01-14T18:53:05.461Z,2.3
2019-01-14T18:58:05.457Z,2.3
2019-01-14T19:03:05.392Z,2.3
2019-01-14T19:08:05.557Z,2.3
2019-01-14T19:13:05.455Z,2.4
2019-01-14T19:18:05.438Z,2.4
2019-01-14T19:23:05.457Z,2.5
2019-01-14T19:28:05.466Z,2.6
2019-01-14T19:33:05.502Z,2.6
2019-01-14T19:38:05.464Z,2.6
2019-01-14T19:43:05.433Z,2.7
2019-01-14T19:48:05.467Z,2.7
2019-01-14T19:53:05.751Z,2.5
2019-01-14T19:58:05.883Z,2.5
2019-01-14T20:03:05.694Z,2.6
2019-01-14T20:08:05.504Z,2.6
2019-01-14T20:13:05.754Z,2.7
2019-01-14T20:18:05.497Z,2.7
2019-01-14T20:23:05.753Z,2.8
2019-01-14T20:28:05.992Z,2.8
2019-01-14T20:33:06.191Z,2.8
2019-01-14T20:38:05.556Z,2.5
2019-01-14T20:43:05.476Z,2.2
2019-01-14T20:48:05.531Z,1.8
2019-01-14T20:53:05.862Z,1.7
2019-01-14T20:58:05.656Z,1.6
2019-01-14T21:03:05.504Z,1.6
2019-01-14T21:08:05.487Z,1.6
2019-01-14T21:13:05.769Z,1.4
2019-01-14T21:18:05.933Z,1.5
2019-01-14T21:23:05.560Z,1.5
2019-01-14T21:28:05.727Z,1.4
2019-01-14T21:33:05.555Z,1.4
2019-01-14T21:38:05.826Z,1.3
2019-01-14T21:43:05.597Z,1.3
2019-01-14T21:48:05.578Z,1.2
2019-01-14T21:53:05.542Z,1.2
2019-01-14T21:58:05.550Z,1.2
2019-01-14T22:03:05.514Z,1.1
2019-01-14T22:08:05.532Z,1.1
2019-01-14T22:13:05.526Z,1
2019-01-14T22:18:05.556Z,1
2019-01-14T22:23:05.544Z,1
2019-01-14T22:28:05.538Z,1
2019-01-14T22:33:05.546Z,1
2019-01-14T22:38:05.755Z,1
2019-01-14T22:43:05.673Z,1
2019-01-14T22:48:05.708Z,1.1
2019-01-14T22:53:05.714Z,1.1
2019-01-14T22:58:05.568Z,1.2
2019-01-14T23:03:05.702Z,1.2
2019-01-14T23:08:05.744Z,1.2
2019-01-14T23:13:05.781Z,1.1
2019-01-14T23:18:05.715Z,1.1
2019-01-14T23:23:05.531Z,1.1
2019-01-14T23:28:05.582Z,1
2019-01-14T23:33:05.705Z,0.9
2019-01-14T23:38:05.744Z,1
2019-01-14T23:43:05.793Z,1
2019-01-14T23:48:05.825Z,1
2019-01-14T23:53:05.590Z,1.1
2019-01-14T23:58:05.603Z,1
